首页
METAR-TAF:

METAR-TAF

机场 :

阿卡普尔科, 墨西哥

纬度: 16-46N, 经度: 099-45W, 海拔: 5米

当前天气观测

该预报发布于54分钟前的20:44 UTC
风速7节,风向西
温度 29°C
湿度 74%
气压 1009 hPa
能見度: 16.1公里
散云层高于1500英尺, 塔状积云.
散云层高于30000英尺

METAR: MMAA 212044Z 28007KT 10SM SCT015TCU SCT300 29/24 A2980 RMK SLP090 52002 963 8/202 CB NNE ISOL AC

时间: 16:38 (21:38 UTC)

预报

该预报发布于5小时和25分钟前的16:13 UTC
预报有效从21日的 18点(UTC)到 22日的 24点(UTC)
风速10节,风向西转西南
能見度: 9.7公里
散云层高于2000英尺
散云层高于10000英尺
多云层高于30000英尺
短暂存在
从 21日的 22点(UTC)到 22日的 02点(UTC)
能見度: 8.0公里
多云层高于1000英尺, 积雨云.
雷暴, 雨
从 22日的 0300点(UTC)
风速5节,风向西南
能見度: 9.7公里
多云层高于1500英尺, 积雨云.
多云层高于9000英尺
小雨
短暂存在
从 22日的 06点(UTC)到 22日的 10点(UTC)
能見度: 8.0公里
从 22日的 1500点(UTC)
风速10节,风向东南
能見度: 9.7公里
多云层高于1500英尺
多云层高于9000英尺
从 22日的 1900点(UTC)
风速10节,风向西南
能見度: 9.7公里
多云层高于2000英尺
多云层高于10000英尺

TAF: MMAA 211613Z 2118/2224 24010KT 6SM HZ SCT020 SCT100 BKN300 TX30/2119Z TN25/2212Z TEMPO 2122/2202 5SM TSRA BKN010CB FM220300 23005KT 6SM -RA BKN015CB BKN090 TEMPO 2206/2210 5SM FM221500 13010KT 6SM HZ BKN015 BKN090 FM221900 23010KT 6SM HZ BKN020 BKN100

超过4000个机场的气象观测和天气预报(METAR&TAF报告)。

可查询的气象台以黄色和红色小点在地图上表示。

将鼠标移到小点上方,可查看气象台名称。

然后点击查看天气观测和预报。

如需切换地图:点击带黑十字的绿色按钮放大地图;点击带横线的绿色按钮缩小地图;或者点击绿色箭头查看邻近地区的地图。


METAR-TAF: